createdAt,value
2023-03-02T00:04:42.469Z,-0.40
2023-03-02T00:09:45.296Z,-0.60
2023-03-02T00:14:47.649Z,-0.80
2023-03-02T00:19:49.934Z,-0.50
2023-03-02T00:24:52.238Z,-0.40
2023-03-02T00:29:54.514Z,-0.60
2023-03-02T00:34:56.816Z,-0.80
2023-03-02T00:39:59.078Z,-0.70
2023-03-02T00:45:01.700Z,-0.80
2023-03-02T00:50:06.834Z,-0.50
2023-03-02T00:55:09.471Z,-0.90
2023-03-02T01:00:12.225Z,-1.00
2023-03-02T01:05:16.137Z,-1.20
2023-03-02T01:10:18.728Z,-1.10
2023-03-02T01:15:21.138Z,-1.30
2023-03-02T01:20:23.507Z,-1.40
2023-03-02T01:25:25.898Z,-1.40
2023-03-02T01:30:28.355Z,-1.20
2023-03-02T01:35:30.707Z,-0.80
2023-03-02T01:40:33.089Z,-1.00
2023-03-02T01:45:59.434Z,-1.20
2023-03-02T01:51:15.992Z,-1.50
2023-03-02T01:56:25.066Z,-1.40
2023-03-02T02:01:29.819Z,-1.50
2023-03-02T02:06:37.985Z,-1.50
2023-03-02T02:11:42.044Z,-1.10
2023-03-02T02:16:44.532Z,-1.10
2023-03-02T02:21:46.827Z,-1.50
2023-03-02T02:26:52.375Z,-1.40
2023-03-02T02:32:10.469Z,-1.40
2023-03-02T02:37:26.241Z,-1.30
2023-03-02T02:42:32.962Z,-1.60
2023-03-02T02:47:35.821Z,-1.90
2023-03-02T02:52:41.005Z,-2.00
2023-03-02T02:57:43.535Z,-1.80
2023-03-02T03:02:51.485Z,-1.60
2023-03-02T03:08:10.095Z,-1.90
2023-03-02T03:13:14.220Z,-2.10
2023-03-02T03:18:24.316Z,-1.50
2023-03-02T03:23:27.005Z,-1.10
2023-03-02T03:28:30.685Z,-0.90
2023-03-02T03:33:33.163Z,-0.80
2023-03-02T03:38:36.488Z,-0.50
2023-03-02T03:43:39.119Z,-0.40
2023-03-02T03:48:42.804Z,-0.10
2023-03-02T03:53:45.770Z,0.10
2023-03-02T03:58:48.634Z,0.10
2023-03-02T04:03:51.149Z,0.40
2023-03-02T04:08:53.633Z,0.60
2023-03-02T04:13:56.040Z,0.80
2023-03-02T04:18:58.650Z,0.90
2023-03-02T04:24:01.271Z,1.00
2023-03-02T04:29:05.055Z,1.00
2023-03-02T04:34:09.673Z,1.20
2023-03-02T04:39:17.332Z,1.10
2023-03-02T04:44:24.426Z,1.20
2023-03-02T04:49:26.720Z,1.20
2023-03-02T04:54:29.244Z,1.20
2023-03-02T04:59:31.548Z,1.30
2023-03-02T05:04:34.073Z,1.30
2023-03-02T05:09:36.501Z,1.30
2023-03-02T05:14:38.789Z,1.40
2023-03-02T05:19:41.265Z,1.40
2023-03-02T05:24:43.722Z,1.40
2023-03-02T05:29:46.100Z,1.40
2023-03-02T05:34:48.470Z,1.40
2023-03-02T05:39:50.800Z,1.50
2023-03-02T05:44:53.170Z,1.40
2023-03-02T05:49:55.560Z,1.40
2023-03-02T05:54:59.447Z,1.30
2023-03-02T06:00:02.036Z,1.30
2023-03-02T06:05:17.188Z,1.30
2023-03-02T06:10:19.614Z,1.30
2023-03-02T06:15:22.113Z,1.40
2023-03-02T06:20:25.301Z,1.50
2023-03-02T06:25:28.063Z,1.50
2023-03-02T06:30:30.378Z,1.70
2023-03-02T06:35:33.456Z,1.80
2023-03-02T06:40:35.916Z,1.80
2023-03-02T06:45:38.436Z,1.80
2023-03-02T06:50:40.866Z,1.90
2023-03-02T06:55:43.262Z,2.00
2023-03-02T07:00:45.635Z,2.10
2023-03-02T07:05:49.152Z,2.20
2023-03-02T07:10:51.577Z,2.40
2023-03-02T07:15:55.000Z,2.40
2023-03-02T07:20:57.338Z,2.50
2023-03-02T07:25:59.777Z,2.50
2023-03-02T07:31:02.687Z,2.60
2023-03-02T07:36:07.510Z,2.70
2023-03-02T07:41:11.109Z,2.80
2023-03-02T07:46:13.519Z,2.70
2023-03-02T07:51:15.887Z,2.80
2023-03-02T07:56:18.711Z,3.00
2023-03-02T08:01:21.096Z,3.10
2023-03-02T08:06:23.642Z,3.20
2023-03-02T08:11:26.180Z,3.30
2023-03-02T08:16:28.685Z,3.40
2023-03-02T08:21:31.699Z,3.60
2023-03-02T08:26:34.276Z,3.60
2023-03-02T08:31:37.087Z,3.70
2023-03-02T08:36:40.969Z,3.80
2023-03-02T08:41:43.218Z,3.80
2023-03-02T08:46:45.569Z,3.90
2023-03-02T08:51:53.400Z,4.10
2023-03-02T08:56:55.815Z,4.10
2023-03-02T09:01:59.516Z,4.10
2023-03-02T09:07:02.123Z,4.00
2023-03-02T09:12:04.700Z,4.10
2023-03-02T09:17:07.187Z,4.00
2023-03-02T09:22:09.709Z,4.10
2023-03-02T09:27:12.175Z,4.10
2023-03-02T09:32:16.425Z,4.10
2023-03-02T09:37:18.898Z,4.20
2023-03-02T09:42:44.385Z,4.40
2023-03-02T09:48:10.996Z,4.40
2023-03-02T09:53:31.158Z,4.60
2023-03-02T09:58:39.627Z,4.80
2023-03-02T10:04:07.677Z,4.90
2023-03-02T10:09:10.850Z,4.90
2023-03-02T10:14:23.388Z,5.00
2023-03-02T10:19:33.664Z,4.90
2023-03-02T10:24:49.524Z,4.90
2023-03-02T10:30:02.998Z,4.80
2023-03-02T10:35:16.556Z,5.00
2023-03-02T10:40:39.558Z,5.00
2023-03-02T10:45:42.026Z,5.10
2023-03-02T10:50:44.591Z,5.10
2023-03-02T10:55:50.227Z,5.00
2023-03-02T11:01:04.525Z,5.00
2023-03-02T11:06:20.914Z,5.10
2023-03-02T11:11:25.251Z,5.40
2023-03-02T11:16:32.484Z,5.40
2023-03-02T11:21:46.676Z,5.30
2023-03-02T11:27:28.362Z,5.40
2023-03-02T11:32:51.463Z,5.40
2023-03-02T11:37:57.286Z,5.40
2023-03-02T11:43:01.830Z,5.40
2023-03-02T11:48:29.547Z,5.40
2023-03-02T11:54:05.138Z,5.50
2023-03-02T11:59:15.698Z,5.30
2023-03-02T12:04:29.726Z,5.30
2023-03-02T12:09:37.855Z,5.30
2023-03-02T12:14:41.715Z,5.20
2023-03-02T12:19:45.281Z,5.10
2023-03-02T12:24:47.845Z,5.30
2023-03-02T12:29:57.582Z,5.40
2023-03-02T12:35:09.241Z,5.50
2023-03-02T12:40:33.844Z,5.50
2023-03-02T12:45:48.206Z,5.60
2023-03-02T12:50:52.658Z,5.60
2023-03-02T12:55:55.293Z,5.60
2023-03-02T13:01:03.259Z,5.60
2023-03-02T13:06:14.726Z,5.70
2023-03-02T13:11:44.300Z,5.70
2023-03-02T13:16:58.615Z,5.80
2023-03-02T13:22:01.193Z,5.60
2023-03-02T13:27:21.346Z,5.70
2023-03-02T13:32:35.134Z,5.50
2023-03-02T13:37:43.921Z,5.30
2023-03-02T13:42:46.828Z,5.40
2023-03-02T13:47:49.209Z,5.50
2023-03-02T13:52:55.005Z,5.60
2023-03-02T13:57:58.469Z,5.70
2023-03-02T14:03:01.047Z,5.60
2023-03-02T14:08:04.812Z,5.60
2023-03-02T14:13:12.803Z,5.40
2023-03-02T14:18:38.066Z,5.30
2023-03-02T14:23:41.309Z,5.30
2023-03-02T14:28:44.805Z,5.10
2023-03-02T14:33:47.214Z,5.10
2023-03-02T14:38:49.555Z,5.10
2023-03-02T14:43:51.993Z,5.10
2023-03-02T14:48:54.484Z,5.20
2023-03-02T14:53:59.741Z,5.10
2023-03-02T14:59:02.406Z,4.90
2023-03-02T15:04:04.865Z,5.00
2023-03-02T15:09:08.500Z,5.00
2023-03-02T15:14:10.853Z,5.00
2023-03-02T15:19:13.801Z,4.90
2023-03-02T15:24:16.126Z,4.80
2023-03-02T15:29:19.977Z,4.80
2023-03-02T15:34:22.284Z,4.60
2023-03-02T15:39:24.641Z,4.50
2023-03-02T15:44:27.722Z,4.50
2023-03-02T15:49:32.793Z,4.40
2023-03-02T15:54:35.388Z,4.30
2023-03-02T15:59:37.952Z,4.30
2023-03-02T16:04:40.362Z,4.30
2023-03-02T16:09:45.309Z,4.10
2023-03-02T16:14:47.646Z,4.20
2023-03-02T16:19:50.102Z,4.10
2023-03-02T16:24:52.483Z,3.90
2023-03-02T16:29:54.941Z,4.00
2023-03-02T16:34:57.240Z,3.90
2023-03-02T16:39:59.617Z,3.90
2023-03-02T16:45:01.923Z,3.90
2023-03-02T16:50:06.159Z,3.70
2023-03-02T16:55:13.336Z,3.70
2023-03-02T17:00:18.761Z,3.60
2023-03-02T17:05:21.752Z,3.70
2023-03-02T17:10:24.219Z,3.70
2023-03-02T17:15:26.488Z,3.70
2023-03-02T17:20:28.922Z,3.70
2023-03-02T17:25:31.235Z,3.70
2023-03-02T17:30:33.876Z,3.60
2023-03-02T17:35:36.544Z,3.40
2023-03-02T17:40:38.860Z,3.20
2023-03-02T17:45:41.549Z,3.20
2023-03-02T17:50:43.844Z,3.10
2023-03-02T17:55:46.132Z,3.10
2023-03-02T18:00:48.360Z,2.80
2023-03-02T18:05:50.677Z,2.80
2023-03-02T18:10:52.998Z,3.10
2023-03-02T18:15:55.449Z,3.00
2023-03-02T18:20:57.977Z,2.60
2023-03-02T18:26:00.376Z,2.80
2023-03-02T18:31:02.731Z,3.00
2023-03-02T18:36:05.583Z,2.80
2023-03-02T18:41:09.133Z,2.70
2023-03-02T18:46:20.818Z,2.50
2023-03-02T18:51:24.679Z,2.30
2023-03-02T18:56:27.644Z,2.10
2023-03-02T19:01:33.557Z,1.90
2023-03-02T19:06:35.875Z,2.00
2023-03-02T19:11:38.394Z,1.60
2023-03-02T19:16:40.828Z,1.60
2023-03-02T19:21:43.228Z,1.60
2023-03-02T19:26:46.084Z,1.60
2023-03-02T19:31:48.914Z,1.60
2023-03-02T19:36:51.316Z,1.70
2023-03-02T19:41:54.349Z,1.90
2023-03-02T19:46:57.225Z,1.90
2023-03-02T19:52:00.678Z,1.80
2023-03-02T19:57:03.652Z,1.50
2023-03-02T20:02:05.992Z,1.80
2023-03-02T20:07:08.271Z,1.90
2023-03-02T20:12:11.628Z,2.10
2023-03-02T20:17:13.911Z,2.10
2023-03-02T20:22:16.829Z,2.00
2023-03-02T20:27:19.160Z,2.10
2023-03-02T20:32:21.784Z,2.10
2023-03-02T20:37:26.033Z,2.00
2023-03-02T20:42:31.256Z,2.10
2023-03-02T20:47:34.046Z,2.40
2023-03-02T20:52:37.131Z,2.50
2023-03-02T20:57:39.935Z,2.50
2023-03-02T21:02:42.545Z,2.50
2023-03-02T21:07:45.697Z,2.50
2023-03-02T21:12:49.030Z,2.50
2023-03-02T21:17:54.606Z,2.50
2023-03-02T21:22:56.986Z,2.50
2023-03-02T21:27:59.282Z,2.50
2023-03-02T21:33:02.526Z,2.60
2023-03-02T21:38:05.370Z,2.50
2023-03-02T21:43:08.374Z,2.50
2023-03-02T21:48:13.704Z,2.50
2023-03-02T21:53:16.065Z,2.40
2023-03-02T21:58:18.364Z,2.40
2023-03-02T22:03:20.749Z,2.40
2023-03-02T22:08:23.048Z,2.40
2023-03-02T22:13:32.522Z,2.40
2023-03-02T22:18:34.807Z,2.40
2023-03-02T22:23:37.075Z,2.30
2023-03-02T22:28:41.030Z,2.20
2023-03-02T22:33:43.371Z,2.20
2023-03-02T22:38:45.708Z,2.20
2023-03-02T22:43:49.495Z,2.20
2023-03-02T22:48:53.012Z,2.10
2023-03-02T22:53:58.386Z,2.00
2023-03-02T22:59:16.832Z,2.00
2023-03-02T23:04:25.904Z,2.00
2023-03-02T23:09:33.351Z,1.80
2023-03-02T23:14:55.089Z,1.50
2023-03-02T23:19:58.098Z,1.60
2023-03-02T23:25:00.535Z,1.60
2023-03-02T23:30:04.329Z,1.60
2023-03-02T23:35:06.936Z,1.70
2023-03-02T23:40:10.003Z,1.70
2023-03-02T23:45:12.423Z,1.70
2023-03-02T23:50:14.926Z,1.60
2023-03-02T23:55:18.071Z,1.50
